createdAt,value
2019-04-11T00:00:23.586Z,21.07
2019-04-11T00:02:53.165Z,20.48
2019-04-11T00:05:21.791Z,25.15
2019-04-11T00:07:50.292Z,19.30
2019-04-11T00:10:19.037Z,18.82
2019-04-11T00:12:48.507Z,26.00
2019-04-11T00:15:18.126Z,17.30
2019-04-11T00:17:46.720Z,19.90
2019-04-11T00:20:15.990Z,17.57
2019-04-11T00:22:45.613Z,21.00
2019-04-11T00:25:15.585Z,18.45
2019-04-11T00:27:44.157Z,23.22
2019-04-11T00:30:15.674Z,21.07
2019-04-11T00:32:45.441Z,17.73
2019-04-11T00:35:14.151Z,16.55
2019-04-11T00:37:43.446Z,18.07
2019-04-11T00:40:13.095Z,19.62
2019-04-11T00:42:42.906Z,18.48
2019-04-11T00:45:11.786Z,18.62
2019-04-11T00:47:41.454Z,21.30
2019-04-11T00:50:10.709Z,17.87
2019-04-11T00:52:39.346Z,17.35
2019-04-11T00:55:08.137Z,17.40
2019-04-11T00:57:37.059Z,20.17
2019-04-11T01:00:07.509Z,17.20
2019-04-11T01:02:36.085Z,19.52
2019-04-11T01:05:05.980Z,17.37
2019-04-11T01:07:35.339Z,18.50
2019-04-11T01:10:06.662Z,19.30
2019-04-11T01:12:36.472Z,18.65
2019-04-11T01:15:08.434Z,18.15
2019-04-11T01:17:37.121Z,17.23
2019-04-11T01:20:08.097Z,18.45
2019-04-11T01:22:36.960Z,17.57
2019-04-11T01:25:08.417Z,18.12
2019-04-11T01:27:39.422Z,18.70
2019-04-11T01:30:10.277Z,16.35
2019-04-11T01:32:38.905Z,17.55
2019-04-11T01:35:08.825Z,17.30
2019-04-11T01:37:38.301Z,22.15
2019-04-11T01:40:07.827Z,18.82
2019-04-11T01:42:37.522Z,16.70
2019-04-11T01:45:07.443Z,18.70
2019-04-11T01:47:51.012Z,18.37
2019-04-11T01:50:21.363Z,21.05
2019-04-11T01:52:50.850Z,15.72
2019-04-11T01:55:20.590Z,18.30
2019-04-11T01:57:49.892Z,16.32
2019-04-11T02:00:37.253Z,19.87
2019-04-11T02:03:08.750Z,19.92
2019-04-11T02:05:37.492Z,16.95
2019-04-11T02:08:07.024Z,18.10
2019-04-11T02:10:36.943Z,17.02
2019-04-11T02:13:05.915Z,16.80
2019-04-11T02:15:34.576Z,18.37
2019-04-11T02:18:03.386Z,16.60
2019-04-11T02:20:31.894Z,19.75
2019-04-11T02:23:04.828Z,18.90
2019-04-11T02:25:38.728Z,18.60
2019-04-11T02:28:08.716Z,16.15
2019-04-11T02:30:41.061Z,19.07
2019-04-11T02:33:10.100Z,18.50
2019-04-11T02:35:39.936Z,17.90
2019-04-11T02:38:11.807Z,20.05
2019-04-11T02:40:41.085Z,17.87
2019-04-11T02:43:11.766Z,17.02
2019-04-11T02:45:54.584Z,18.60
2019-04-11T02:48:13.262Z,20.65
2019-04-11T02:50:43.120Z,18.00
2019-04-11T02:53:12.576Z,17.77
2019-04-11T02:55:43.636Z,16.85
2019-04-11T02:58:12.517Z,22.80
2019-04-11T03:00:42.214Z,19.17
2019-04-11T03:03:12.814Z,19.27
2019-04-11T03:05:41.897Z,16.85
2019-04-11T03:08:13.981Z,19.40
2019-04-11T03:10:42.861Z,22.42
2019-04-11T03:13:12.703Z,21.25
2019-04-11T03:15:56.748Z,19.15
2019-04-11T03:18:14.535Z,24.52
2019-04-11T03:20:48.353Z,20.90
2019-04-11T03:23:15.060Z,20.05
2019-04-11T03:25:42.752Z,19.73
2019-04-11T03:28:16.743Z,16.27
2019-04-11T03:30:59.260Z,18.75
2019-04-11T03:38:36.955Z,19.07
2019-04-11T03:41:00.834Z,20.00
2019-04-11T03:43:28.149Z,21.45
2019-04-11T03:46:06.722Z,23.83
2019-04-11T03:48:29.010Z,26.73
2019-04-11T03:50:46.616Z,17.50
2019-04-11T03:53:17.332Z,25.82
2019-04-11T03:55:47.328Z,20.55
2019-04-11T03:58:17.452Z,21.93
2019-04-11T04:00:49.134Z,24.20
2019-04-11T04:03:18.246Z,23.38
2019-04-11T04:05:48.493Z,19.50
2019-04-11T04:08:17.949Z,21.15
2019-04-11T04:11:05.930Z,22.50
2019-04-11T04:13:36.886Z,23.95
2019-04-11T04:16:24.450Z,20.50
2019-04-11T04:18:51.812Z,20.30
2019-04-11T04:21:28.854Z,20.97
2019-04-11T04:23:59.337Z,23.52
2019-04-11T04:26:29.235Z,20.62
2019-04-11T04:28:59.711Z,21.80
2019-04-11T04:31:28.726Z,24.15
2019-04-11T04:33:57.740Z,18.07
2019-04-11T04:36:28.493Z,21.27
2019-04-11T04:38:59.114Z,25.02
2019-04-11T04:41:38.423Z,26.17
2019-04-11T04:44:01.684Z,21.33
2019-04-11T04:46:50.198Z,40.20
2019-04-11T04:49:00.645Z,26.82
2019-04-11T04:51:31.020Z,24.92
2019-04-11T04:54:00.029Z,20.70
2019-04-11T04:56:31.779Z,22.32
2019-04-11T04:58:59.226Z,24.70
2019-04-11T05:01:29.106Z,21.77
2019-04-11T05:03:58.332Z,22.35
2019-04-11T05:06:28.103Z,20.90
2019-04-11T05:08:58.123Z,23.00
2019-04-11T05:11:28.225Z,29.05
2019-04-11T05:13:58.562Z,22.48
2019-04-11T05:16:27.280Z,20.10
2019-04-11T05:18:56.636Z,20.37
2019-04-11T05:21:26.072Z,26.75
2019-04-11T05:23:55.496Z,22.98
2019-04-11T05:26:25.668Z,19.12
2019-04-11T05:28:55.231Z,19.87
2019-04-11T05:31:24.805Z,19.87
2019-04-11T05:33:59.563Z,18.57
2019-04-11T05:36:28.341Z,17.73
2019-04-11T05:38:56.882Z,19.85
2019-04-11T05:41:26.196Z,17.48
2019-04-11T05:43:55.702Z,17.10
2019-04-11T05:46:33.573Z,18.62
2019-04-11T05:49:02.645Z,18.73
2019-04-11T05:51:38.871Z,27.65
2019-04-11T05:54:07.324Z,18.48
2019-04-11T05:56:35.337Z,14.55
2019-04-11T05:59:09.453Z,16.30
2019-04-11T06:01:42.546Z,19.40
2019-04-11T06:04:20.987Z,17.25
2019-04-11T06:06:50.624Z,17.77
2019-04-11T06:09:20.933Z,19.42
2019-04-11T06:11:58.194Z,22.48
2019-04-11T06:14:31.216Z,14.90
2019-04-11T06:17:01.485Z,20.02
2019-04-11T06:19:31.957Z,14.70
2019-04-11T06:22:04.685Z,17.00
2019-04-11T06:24:50.179Z,19.90
2019-04-11T06:27:24.112Z,19.15
2019-04-11T06:29:54.913Z,16.62
2019-04-11T06:32:40.947Z,17.98
2019-04-11T06:35:11.579Z,18.82
2019-04-11T06:37:41.820Z,15.83
2019-04-11T06:40:27.763Z,17.12
2019-04-11T06:43:01.436Z,17.25
2019-04-11T06:45:48.132Z,17.50
2019-04-11T06:48:18.338Z,15.40
2019-04-11T06:50:51.350Z,15.23
2019-04-11T06:53:20.996Z,17.15
2019-04-11T06:56:08.096Z,14.40
2019-04-11T06:58:39.482Z,14.43
2019-04-11T07:01:09.873Z,19.50
2019-04-11T07:03:51.670Z,16.97
2019-04-11T07:06:21.939Z,17.55
2019-04-11T07:08:52.154Z,16.07
2019-04-11T07:11:25.539Z,17.32
2019-04-11T07:13:58.549Z,17.30
2019-04-11T07:18:57.840Z,16.67
2019-04-11T07:21:28.027Z,16.67
2019-04-11T07:24:14.511Z,16.57
2019-04-11T07:26:44.251Z,20.08
2019-04-11T07:29:31.422Z,16.70
2019-04-11T07:32:07.680Z,15.65
2019-04-11T07:34:54.425Z,20.20
2019-04-11T07:37:28.140Z,18.30
2019-04-11T07:40:13.343Z,16.23
2019-04-11T07:42:53.190Z,16.85
2019-04-11T07:45:40.302Z,18.57
2019-04-11T07:48:21.759Z,17.05
2019-04-11T07:50:53.713Z,23.40
2019-04-11T07:53:24.004Z,16.50
2019-04-11T07:55:53.157Z,20.30
2019-04-11T07:58:26.367Z,19.10
2019-04-11T08:01:12.544Z,18.70
2019-04-11T08:03:42.778Z,17.95
2019-04-11T08:06:28.821Z,17.17
2019-04-11T08:09:02.685Z,15.40
2019-04-11T08:11:33.884Z,17.35
2019-04-11T08:14:10.479Z,25.35
2019-04-11T08:16:46.864Z,20.40
2019-04-11T08:19:33.373Z,20.48
2019-04-11T08:22:03.572Z,19.12
2019-04-11T08:24:42.711Z,22.67
2019-04-11T08:27:28.063Z,18.50
2019-04-11T08:30:02.511Z,21.40
2019-04-11T08:32:38.495Z,22.22
2019-04-11T08:35:15.768Z,20.62
2019-04-11T08:38:02.835Z,21.35
2019-04-11T08:40:42.926Z,20.95
2019-04-11T08:43:29.167Z,17.60
2019-04-11T08:46:06.639Z,20.35
2019-04-11T08:48:53.275Z,18.30
2019-04-11T08:51:23.520Z,20.75
2019-04-11T08:54:02.446Z,20.75
2019-04-11T08:56:31.354Z,20.35
2019-04-11T08:59:31.997Z,21.07
2019-04-11T09:02:00.733Z,22.87
2019-04-11T09:04:48.153Z,23.55
2019-04-11T09:07:21.514Z,20.45
2019-04-11T09:10:07.393Z,22.13
2019-04-11T09:12:38.398Z,24.10
2019-04-11T09:15:17.680Z,20.23
2019-04-11T09:17:56.576Z,21.12
2019-04-11T09:20:23.376Z,21.50
2019-04-11T09:22:53.590Z,20.43
2019-04-11T09:25:40.074Z,20.17
2019-04-11T09:28:11.371Z,23.45
2019-04-11T09:30:43.041Z,19.80
2019-04-11T09:33:29.235Z,22.37
2019-04-11T09:35:59.758Z,20.97
2019-04-11T09:38:32.843Z,23.70
2019-04-11T09:41:09.093Z,23.40
2019-04-11T09:43:42.248Z,21.65
2019-04-11T09:46:12.547Z,21.40
2019-04-11T09:48:48.966Z,19.45
2019-04-11T09:51:38.045Z,22.85
2019-04-11T09:54:12.044Z,24.77
2019-04-11T09:56:58.509Z,21.10
2019-04-11T09:59:31.681Z,22.35
2019-04-11T10:02:10.661Z,21.00
2019-04-11T10:04:41.676Z,25.97
2019-04-11T10:07:28.138Z,20.43
2019-04-11T10:10:04.612Z,22.50
2019-04-11T10:12:40.672Z,24.23
2019-04-11T10:15:11.252Z,25.23
2019-04-11T10:17:42.503Z,22.65
2019-04-11T10:20:20.818Z,22.87
2019-04-11T10:22:52.198Z,25.08
2019-04-11T10:25:25.437Z,23.65
2019-04-11T10:28:11.197Z,26.82
2019-04-11T10:30:50.384Z,26.87
2019-04-11T10:33:33.134Z,27.90
2019-04-11T10:36:19.398Z,26.87
2019-04-11T10:38:49.550Z,25.00
2019-04-11T10:41:32.564Z,25.12
2019-04-11T10:46:41.675Z,25.30
2019-04-11T10:49:30.392Z,26.37
2019-04-11T10:52:00.655Z,25.92
2019-04-11T10:54:31.301Z,32.23
2019-04-11T10:57:05.620Z,26.48
2019-04-11T10:59:35.898Z,30.27
2019-04-11T11:02:23.011Z,26.55
2019-04-11T11:04:53.185Z,27.67
2019-04-11T11:07:21.771Z,26.23
2019-04-11T11:09:54.933Z,25.10
2019-04-11T11:12:35.158Z,31.80
2019-04-11T11:15:09.453Z,28.70
2019-04-11T11:18:03.218Z,28.83
2019-04-11T11:20:33.919Z,27.32
2019-04-11T11:22:58.340Z,27.98
2019-04-11T11:25:35.081Z,27.65
2019-04-11T11:28:03.737Z,24.52
2019-04-11T11:30:50.353Z,24.87
2019-04-11T11:33:20.569Z,27.32
2019-04-11T11:35:51.955Z,28.42
2019-04-11T11:38:25.972Z,30.17
2019-04-11T11:41:05.901Z,23.27
2019-04-11T11:43:35.429Z,26.70
2019-04-11T11:46:25.694Z,26.90
2019-04-11T11:48:54.262Z,25.02
2019-04-11T11:51:27.830Z,23.20
2019-04-11T11:53:59.376Z,26.00
2019-04-11T11:56:27.937Z,24.00
2019-04-11T11:59:07.194Z,24.27
2019-04-11T12:01:42.267Z,28.27
2019-04-11T12:04:24.446Z,28.62
2019-04-11T12:06:59.754Z,24.57
2019-04-11T12:09:44.707Z,27.90
2019-04-11T12:12:15.613Z,29.85
2019-04-11T12:15:01.893Z,25.17
2019-04-11T12:17:37.875Z,26.35
2019-04-11T12:20:14.310Z,24.35
2019-04-11T12:22:42.969Z,26.20
2019-04-11T12:25:27.153Z,25.20
2019-04-11T12:28:11.967Z,32.63
2019-04-11T12:30:39.837Z,25.92
2019-04-11T12:33:29.706Z,33.33
2019-04-11T12:36:07.598Z,27.40
2019-04-11T12:38:38.417Z,27.48
2019-04-11T12:41:19.998Z,29.50
2019-04-11T12:43:55.533Z,26.33
2019-04-11T12:46:39.474Z,28.57
2019-04-11T12:49:28.268Z,28.65
2019-04-11T12:52:22.595Z,27.62
2019-04-11T12:54:48.252Z,27.95
2019-04-11T12:57:36.185Z,26.30
2019-04-11T13:00:11.926Z,31.02
2019-04-11T13:02:58.469Z,28.83
2019-04-11T13:05:32.271Z,28.20
2019-04-11T13:08:17.610Z,27.95
2019-04-11T13:10:50.244Z,32.05
2019-04-11T13:13:20.785Z,27.13
2019-04-11T13:15:51.417Z,30.15
2019-04-11T13:18:40.780Z,28.98
2019-04-11T13:21:12.998Z,31.48
2019-04-11T13:23:56.280Z,31.42
2019-04-11T13:26:41.913Z,32.38
2019-04-11T13:29:19.667Z,27.95
2019-04-11T13:31:56.035Z,35.43
2019-04-11T13:34:32.168Z,28.50
2019-04-11T13:37:14.393Z,31.12
2019-04-11T13:39:50.041Z,28.60
2019-04-11T13:42:25.510Z,32.78
2019-04-11T13:44:59.236Z,33.95
2019-04-11T13:47:33.661Z,31.07
2019-04-11T13:50:04.099Z,29.55
2019-04-11T13:52:52.078Z,29.70
2019-04-11T13:55:21.066Z,29.67
2019-04-11T13:57:53.733Z,28.73
2019-04-11T14:00:38.672Z,32.98
2019-04-11T14:03:26.842Z,30.65
2019-04-11T14:05:57.394Z,34.43
2019-04-11T14:08:27.586Z,31.07
2019-04-11T14:11:10.704Z,33.13
2019-04-11T14:13:43.850Z,30.52
2019-04-11T14:16:14.708Z,31.70
2019-04-11T14:18:45.198Z,29.98
2019-04-11T14:21:27.367Z,29.20
2019-04-11T14:24:12.661Z,31.75
2019-04-11T14:26:44.206Z,35.20
2019-04-11T14:29:15.999Z,33.45
2019-04-11T14:31:53.822Z,29.63
2019-04-11T14:34:29.753Z,34.40
2019-04-11T14:37:11.633Z,31.37
2019-04-11T14:39:41.851Z,29.05
2019-04-11T14:42:28.489Z,27.90
2019-04-11T14:44:57.156Z,29.57
2019-04-11T14:47:39.001Z,27.15
2019-04-11T14:50:11.154Z,27.90
2019-04-11T14:52:56.795Z,29.12
2019-04-11T14:55:26.922Z,27.07
2019-04-11T14:58:13.114Z,28.17
2019-04-11T15:00:41.694Z,31.27
2019-04-11T15:03:11.879Z,30.25
2019-04-11T15:05:45.342Z,35.20
2019-04-11T15:08:17.773Z,30.05
2019-04-11T15:10:59.340Z,29.52
2019-04-11T15:13:29.469Z,30.40
2019-04-11T15:16:11.513Z,32.75
2019-04-11T15:18:41.632Z,33.60
2019-04-11T15:21:17.325Z,31.27
2019-04-11T15:23:45.881Z,29.15
2019-04-11T15:26:27.844Z,30.95
2019-04-11T15:28:58.041Z,27.98
2019-04-11T15:31:39.495Z,27.15
2019-04-11T15:34:08.991Z,26.17
2019-04-11T15:36:39.904Z,25.82
2019-04-11T15:39:26.199Z,28.32
2019-04-11T15:42:01.808Z,25.48
2019-04-11T15:44:43.735Z,33.23
2019-04-11T15:47:21.629Z,24.95
2019-04-11T15:50:07.906Z,31.62
2019-04-11T15:52:38.384Z,30.05
2019-04-11T15:55:24.197Z,27.65
2019-04-11T15:57:52.942Z,28.05
2019-04-11T16:00:29.302Z,28.20
2019-04-11T16:02:59.345Z,30.75
2019-04-11T16:05:45.531Z,27.35
2019-04-11T16:08:15.750Z,28.52
2019-04-11T16:10:51.855Z,28.70
2019-04-11T16:13:24.614Z,27.32
2019-04-11T16:16:07.152Z,29.20
2019-04-11T16:18:51.792Z,25.88
2019-04-11T16:21:25.000Z,30.15
2019-04-11T16:24:11.082Z,25.95
2019-04-11T16:26:44.040Z,26.62
2019-04-11T16:29:23.112Z,31.40
2019-04-11T16:31:53.252Z,30.17
2019-04-11T16:34:26.134Z,25.37
2019-04-11T16:39:24.061Z,24.85
2019-04-11T16:42:03.055Z,26.02
2019-04-11T16:44:42.030Z,30.30
2019-04-11T16:47:28.470Z,26.35
2019-04-11T16:49:57.610Z,24.85
2019-04-11T16:52:26.202Z,29.60
2019-04-11T16:54:54.757Z,32.95
2019-04-11T16:57:23.337Z,27.20
2019-04-11T16:59:51.886Z,29.50
2019-04-11T17:02:21.793Z,25.52
2019-04-11T17:04:50.927Z,24.60
2019-04-11T17:07:26.070Z,25.48
2019-04-11T17:09:56.901Z,26.55
2019-04-11T17:12:26.665Z,27.17
2019-04-11T17:14:55.704Z,26.05
2019-04-11T17:17:26.290Z,29.87
2019-04-11T17:19:54.493Z,23.60
2019-04-11T17:22:23.015Z,28.80
2019-04-11T17:24:51.563Z,24.90
2019-04-11T17:27:20.988Z,27.82
2019-04-11T17:29:50.341Z,28.27
2019-04-11T17:32:18.819Z,27.87
2019-04-11T17:34:47.401Z,28.70
2019-04-11T17:37:15.943Z,26.15
2019-04-11T17:39:44.517Z,26.80
2019-04-11T17:42:13.373Z,26.57
2019-04-11T17:44:42.606Z,27.22
2019-04-11T17:47:11.165Z,30.05
2019-04-11T17:49:39.669Z,26.17
2019-04-11T17:52:08.449Z,26.93
2019-04-11T17:54:37.097Z,31.50
2019-04-11T17:57:05.651Z,27.22
2019-04-11T17:59:34.226Z,22.90
2019-04-11T18:02:03.350Z,29.95
2019-04-11T18:04:31.921Z,25.72
2019-04-11T18:07:00.542Z,24.27
2019-04-11T18:09:29.041Z,25.15
2019-04-11T18:11:57.538Z,25.10
2019-04-11T18:14:26.108Z,25.88
2019-04-11T18:16:54.585Z,25.00
2019-04-11T18:19:23.084Z,24.45
2019-04-11T18:21:51.710Z,23.73
2019-04-11T18:24:20.490Z,26.23
2019-04-11T18:26:51.816Z,26.65
2019-04-11T18:29:22.794Z,30.72
2019-04-11T18:31:50.376Z,24.05
2019-04-11T18:34:19.011Z,22.85
2019-04-11T18:36:47.561Z,26.10
2019-04-11T18:39:16.201Z,28.45
2019-04-11T18:41:44.749Z,24.92
2019-04-11T18:44:13.477Z,22.98
2019-04-11T18:46:42.083Z,29.35
2019-04-11T18:49:10.642Z,21.73
2019-04-11T18:51:39.249Z,25.27
2019-04-11T18:54:07.926Z,26.00
2019-04-11T18:56:38.117Z,25.08
2019-04-11T18:59:06.918Z,24.92
2019-04-11T19:01:38.942Z,30.10
2019-04-11T19:04:05.921Z,21.85
2019-04-11T19:06:34.423Z,24.70
2019-04-11T19:09:07.421Z,25.65
2019-04-11T19:11:35.925Z,21.80
2019-04-11T19:14:04.537Z,26.97
2019-04-11T19:16:33.289Z,28.57
2019-04-11T19:19:01.969Z,21.82
2019-04-11T19:21:30.526Z,25.35
2019-04-11T19:23:59.061Z,24.98
2019-04-11T19:26:27.694Z,21.65
2019-04-11T19:28:56.254Z,24.87
2019-04-11T19:31:27.392Z,21.85
2019-04-11T19:33:55.051Z,22.93
2019-04-11T19:36:23.629Z,23.87
2019-04-11T19:38:52.202Z,20.57
2019-04-11T19:41:20.778Z,21.02
2019-04-11T19:43:49.911Z,20.23
2019-04-11T19:46:20.432Z,27.32
2019-04-11T19:48:48.689Z,24.00
2019-04-11T19:51:17.189Z,25.40
2019-04-11T19:53:45.760Z,21.80
2019-04-11T19:56:21.554Z,22.20
2019-04-11T19:58:50.182Z,19.87
2019-04-11T20:01:22.841Z,21.97
2019-04-11T20:03:48.943Z,24.25
2019-04-11T20:06:17.516Z,21.35
2019-04-11T20:08:47.823Z,21.73
2019-04-11T20:11:16.217Z,23.73
2019-04-11T20:13:44.768Z,23.12
2019-04-11T20:16:13.356Z,17.35
2019-04-11T20:18:50.900Z,22.05
2019-04-11T20:21:12.202Z,19.80
2019-04-11T20:23:41.740Z,18.17
2019-04-11T20:26:10.958Z,19.00
2019-04-11T20:28:39.514Z,21.62
2019-04-11T20:31:08.089Z,18.95
2019-04-11T20:33:36.817Z,23.55
2019-04-11T20:36:05.392Z,22.40
2019-04-11T20:38:33.889Z,16.48
2019-04-11T20:41:02.481Z,20.40
2019-04-11T20:43:31.021Z,19.82
2019-04-11T20:45:59.527Z,20.48
2019-04-11T20:48:30.834Z,21.35
2019-04-11T20:50:58.286Z,15.93
2019-04-11T20:53:26.838Z,16.17
2019-04-11T20:55:55.340Z,19.02
2019-04-11T20:58:27.459Z,16.67
2019-04-11T21:00:55.883Z,14.87
2019-04-11T21:03:24.304Z,19.98
2019-04-11T21:05:52.885Z,16.65
2019-04-11T21:08:21.438Z,19.95
2019-04-11T21:10:50.257Z,19.73
2019-04-11T21:13:18.802Z,16.12
2019-04-11T21:15:47.407Z,15.75
2019-04-11T21:18:15.933Z,18.52
2019-04-11T21:20:44.514Z,18.00
2019-04-11T21:23:23.735Z,17.05
2019-04-11T21:25:43.318Z,16.40
2019-04-11T21:28:11.875Z,17.87
2019-04-11T21:30:40.425Z,18.10
2019-04-11T21:33:09.001Z,17.62
2019-04-11T21:35:37.478Z,18.90
2019-04-11T21:38:06.050Z,17.35
2019-04-11T21:40:35.898Z,18.25
2019-04-11T21:43:06.208Z,16.60
2019-04-11T21:45:35.878Z,16.37
2019-04-11T21:48:06.588Z,16.70
2019-04-11T21:50:35.414Z,16.40
2019-04-11T21:53:03.981Z,17.00
2019-04-11T21:55:32.807Z,16.70
2019-04-11T21:58:01.375Z,15.03
2019-04-11T22:00:39.757Z,20.65
2019-04-11T22:03:08.589Z,16.35
2019-04-11T22:05:37.205Z,15.95
2019-04-11T22:08:05.849Z,14.10
2019-04-11T22:10:34.396Z,19.02
2019-04-11T22:13:02.977Z,16.52
2019-04-11T22:15:31.523Z,16.30
2019-04-11T22:18:00.111Z,16.67
2019-04-11T22:20:28.710Z,15.43
2019-04-11T22:22:57.282Z,16.27
2019-04-11T22:25:25.837Z,16.20
2019-04-11T22:27:54.494Z,16.27
2019-04-11T22:30:25.418Z,14.43
2019-04-11T22:32:57.261Z,15.93
2019-04-11T22:35:28.603Z,17.98
2019-04-11T22:37:55.414Z,19.05
2019-04-11T22:40:23.965Z,16.82
2019-04-11T22:42:52.532Z,18.67
2019-04-11T22:45:21.014Z,14.58
2019-04-11T22:47:49.513Z,18.67
2019-04-11T22:50:18.057Z,16.67
2019-04-11T22:52:46.631Z,17.62
2019-04-11T22:55:15.105Z,15.83
2019-04-11T22:57:44.308Z,16.35
2019-04-11T23:00:15.331Z,18.57
2019-04-11T23:02:48.150Z,16.93
2019-04-11T23:05:17.416Z,17.70
2019-04-11T23:07:48.354Z,19.52
2019-04-11T23:10:17.630Z,17.42
2019-04-11T23:12:46.577Z,19.70
2019-04-11T23:15:15.739Z,17.27
2019-04-11T23:17:44.908Z,18.50
2019-04-11T23:20:14.254Z,19.62
2019-04-11T23:22:43.563Z,17.07
2019-04-11T23:25:12.123Z,18.07
2019-04-11T23:27:40.634Z,17.55
2019-04-11T23:30:09.984Z,17.90
2019-04-11T23:32:38.492Z,20.02
2019-04-11T23:35:07.057Z,18.23
2019-04-11T23:37:37.170Z,22.35
2019-04-11T23:40:06.312Z,19.85
2019-04-11T23:42:34.780Z,18.50
2019-04-11T23:45:04.029Z,20.12
2019-04-11T23:47:32.582Z,17.55
2019-04-11T23:50:01.080Z,20.77
2019-04-11T23:52:29.634Z,17.87
2019-04-11T23:54:58.222Z,22.77
2019-04-11T23:57:28.878Z,22.48
